Time;durP1;ratioP1;P1;durP2;ratioP2;P2;SDS_P1;SDS_P2;PMS_P1;PMS_P2;Temp;Humidity;BMP_temperature;BMP_pressure;BME280_temperature;BME280_humidity;BME280_pressure;Samples;Min_cycle;Max_cycle;Signal;HPM_P1;HPM_P2
2023/08/19 00:01:59;;;;;;;6.40;4.57;;;19.00;99.90;;;;;;4958510;28;20039;-65
2023/08/19 00:04:32;;;;;;;4.83;4.43;;;19.10;99.90;;;;;;4961313;28;20049;-65
2023/08/19 00:07:04;;;;;;;5.75;4.85;;;19.10;99.90;;;;;;4959892;28;20047;-65
2023/08/19 00:09:38;;;;;;;6.50;3.67;;;19.10;99.90;;;;;;4960372;28;20043;-65
2023/08/19 00:12:10;;;;;;;6.70;5.10;;;19.10;99.90;;;;;;4965073;28;20050;-65
2023/08/19 00:14:41;;;;;;;7.82;4.45;;;19.00;99.90;;;;;;4960405;28;20423;-65
2023/08/19 00:17:13;;;;;;;5.30;4.25;;;19.00;99.90;;;;;;4956512;28;20047;-65
2023/08/19 00:19:45;;;;;;;12.77;5.70;;;19.00;99.90;;;;;;4954900;28;20048;-65
2023/08/19 00:22:20;;;;;;;6.32;4.35;;;18.90;99.90;;;;;;4957484;28;20427;-65
2023/08/19 00:24:47;;;;;;;8.10;4.72;;;18.90;99.90;;;;;;4961057;28;20047;-65
2023/08/19 00:27:14;;;;;;;6.32;4.22;;;18.90;99.90;;;;;;4961187;28;20076;-65
2023/08/19 00:29:46;;;;;;;8.50;4.38;;;18.80;99.90;;;;;;4961162;28;20046;-64
2023/08/19 00:32:15;;;;;;;4.53;4.13;;;18.80;99.90;;;;;;4962480;28;20590;-64
2023/08/19 00:34:47;;;;;;;7.03;4.28;;;18.70;99.90;;;;;;4969550;28;20471;-64
2023/08/19 00:37:19;;;;;;;6.50;4.40;;;18.70;99.90;;;;;;4948745;28;20043;-64
2023/08/19 00:39:51;;;;;;;6.43;4.05;;;18.60;99.90;;;;;;4959954;28;20054;-64
2023/08/19 00:42:23;;;;;;;7.05;4.72;;;18.60;99.90;;;;;;4957715;28;20044;-65
2023/08/19 00:44:54;;;;;;;10.90;4.85;;;18.60;99.90;;;;;;4957148;28;20073;-65
2023/08/19 00:47:26;;;;;;;5.32;4.05;;;18.60;99.90;;;;;;4960882;28;20055;-65
2023/08/19 00:49:58;;;;;;;5.80;4.40;;;18.60;99.90;;;;;;4970156;28;20062;-65
2023/08/19 00:52:33;;;;;;;5.80;4.45;;;18.50;99.90;;;;;;4963338;28;20426;-65
2023/08/19 00:55:06;;;;;;;5.63;3.80;;;18.40;99.90;;;;;;4965029;28;20502;-65
2023/08/19 00:57:40;;;;;;;5.10;4.28;;;18.40;99.90;;;;;;4964064;28;20035;-65
2023/08/19 01:00:12;;;;;;;7.10;4.35;;;18.40;99.90;;;;;;4969214;28;20051;-65
2023/08/19 01:02:44;;;;;;;6.03;4.20;;;18.40;99.90;;;;;;4973277;28;20066;-65
2023/08/19 01:05:17;;;;;;;6.00;4.65;;;18.30;99.90;;;;;;4973665;28;20388;-64
2023/08/19 01:07:54;;;;;;;5.93;4.43;;;18.30;99.90;;;;;;4961307;28;20594;-64
2023/08/19 01:10:34;;;;;;;5.15;4.63;;;18.30;99.90;;;;;;4949235;28;20141;-64
2023/08/19 01:13:14;;;;;;;5.22;4.72;;;18.30;99.90;;;;;;4970542;28;20094;-64
2023/08/19 01:16:04;;;;;;;7.10;4.57;;;18.30;99.90;;;;;;4969826;28;20094;-65
2023/08/19 01:18:39;;;;;;;6.65;4.43;;;18.30;99.90;;;;;;4961341;28;20062;-65
2023/08/19 01:21:11;;;;;;;6.97;4.70;;;18.30;99.90;;;;;;4962338;28;20058;-65
2023/08/19 01:23:47;;;;;;;5.78;4.70;;;18.30;99.90;;;;;;4959707;28;20047;-65
2023/08/19 01:26:19;;;;;;;4.97;4.47;;;18.30;99.90;;;;;;4965974;28;20106;-64
2023/08/19 01:28:51;;;;;;;5.00;4.50;;;18.20;99.90;;;;;;4957883;28;20496;-65
2023/08/19 01:31:23;;;;;;;4.70;4.30;;;18.30;99.90;;;;;;4953489;28;20050;-65
2023/08/19 01:33:55;;;;;;;7.00;4.55;;;18.20;99.90;;;;;;4960318;28;20043;-65
2023/08/19 01:36:34;;;;;;;5.55;4.68;;;18.20;99.90;;;;;;4958491;28;20059;-65
2023/08/19 01:39:10;;;;;;;7.85;4.30;;;18.20;99.90;;;;;;4965680;28;20047;-64
2023/08/19 01:41:43;;;;;;;5.07;4.50;;;18.20;99.90;;;;;;4968631;28;20129;-64
2023/08/19 01:44:16;;;;;;;6.57;4.50;;;18.10;99.90;;;;;;4953376;28;20137;-64
2023/08/19 01:46:47;;;;;;;5.68;5.00;;;18.10;99.90;;;;;;4962348;28;20540;-65
2023/08/19 01:49:19;;;;;;;6.03;4.72;;;18.10;99.90;;;;;;4965306;28;20554;-64
2023/08/19 01:51:51;;;;;;;5.75;4.68;;;18.00;99.90;;;;;;4958373;28;20043;-64
2023/08/19 01:54:23;;;;;;;5.30;4.53;;;18.10;99.90;;;;;;4957285;28;20043;-65
2023/08/19 01:56:54;;;;;;;9.20;5.43;;;18.10;99.90;;;;;;4964364;28;20051;-65
2023/08/19 01:59:26;;;;;;;13.15;7.68;;;17.90;99.90;;;;;;4958907;28;20428;-65
2023/08/19 02:01:58;;;;;;;6.03;5.43;;;17.90;99.90;;;;;;4944336;28;20141;-65
2023/08/19 02:04:31;;;;;;;6.53;5.82;;;17.80;99.90;;;;;;4962337;28;20138;-64
2023/08/19 02:07:03;;;;;;;7.47;6.72;;;17.80;99.90;;;;;;4982121;28;20100;-65
2023/08/19 02:09:35;;;;;;;6.20;5.43;;;17.90;99.90;;;;;;4958666;28;20067;-65
2023/08/19 02:12:07;;;;;;;5.93;5.43;;;17.90;99.90;;;;;;4963166;28;20540;-64
2023/08/19 02:14:39;;;;;;;7.82;6.30;;;17.90;99.90;;;;;;4958504;28;20042;-65
2023/08/19 02:17:12;;;;;;;5.32;4.72;;;18.00;99.90;;;;;;4961947;28;20047;-65
2023/08/19 02:19:38;;;;;;;6.57;4.90;;;17.90;99.90;;;;;;4954006;28;20042;-65
2023/08/19 02:22:10;;;;;;;5.68;4.75;;;17.80;99.90;;;;;;4955224;28;20131;-65
2023/08/19 02:24:42;;;;;;;4.90;4.18;;;17.90;99.90;;;;;;4961884;28;20043;-65
2023/08/19 02:27:15;;;;;;;7.38;4.40;;;17.80;99.90;;;;;;4959613;28;20094;-65
2023/08/19 02:29:47;;;;;;;5.13;4.33;;;17.80;99.90;;;;;;4962080;28;20047;-65
2023/08/19 02:32:19;;;;;;;5.57;4.43;;;17.80;99.90;;;;;;4965226;28;20034;-65
2023/08/19 02:34:51;;;;;;;4.70;4.10;;;17.70;99.90;;;;;;4959728;28;20411;-65
2023/08/19 02:37:18;;;;;;;5.70;5.00;;;17.70;99.90;;;;;;4966637;28;20576;-65
2023/08/19 02:39:49;;;;;;;7.32;5.68;;;17.70;99.90;;;;;;4961538;28;20494;-64
2023/08/19 02:42:21;;;;;;;5.70;5.18;;;17.70;99.90;;;;;;4964632;28;20039;-65
2023/08/19 02:44:53;;;;;;;5.05;4.55;;;17.70;99.90;;;;;;4943479;28;20043;-65
2023/08/19 02:47:25;;;;;;;6.47;5.03;;;17.70;99.90;;;;;;4956751;28;20043;-65
2023/08/19 02:49:57;;;;;;;6.82;4.72;;;17.70;99.90;;;;;;4942376;28;20055;-65
2023/08/19 02:52:30;;;;;;;8.15;4.70;;;17.70;99.90;;;;;;4961790;28;20031;-65
2023/08/19 02:55:02;;;;;;;6.70;4.75;;;17.60;99.90;;;;;;4961645;28;20122;-64
2023/08/19 02:57:34;;;;;;;5.03;4.18;;;17.60;99.90;;;;;;4979848;23;20522;-63
2023/08/19 03:00:07;;;;;;;5.10;4.60;;;17.70;99.90;;;;;;4954358;28;20049;-64
2023/08/19 03:02:39;;;;;;;5.30;4.38;;;17.70;99.90;;;;;;4955012;28;20063;-64
2023/08/19 03:05:11;;;;;;;6.25;4.80;;;17.70;99.90;;;;;;4970848;28;20055;-64
2023/08/19 03:07:43;;;;;;;4.93;4.45;;;17.70;99.90;;;;;;4950995;28;20099;-64
2023/08/19 03:10:14;;;;;;;7.78;4.53;;;17.70;99.90;;;;;;4933280;29;20572;-64
2023/08/19 03:12:41;;;;;;;5.00;4.10;;;17.60;99.90;;;;;;4921421;29;20067;-64
2023/08/19 03:15:13;;;;;;;6.40;4.68;;;17.60;99.90;;;;;;4932098;29;20474;-65
2023/08/19 03:17:45;;;;;;;9.45;5.35;;;17.60;99.90;;;;;;4923936;29;20032;-64
2023/08/19 03:20:17;;;;;;;7.07;5.28;;;17.50;99.90;;;;;;4923097;29;20050;-64
2023/08/19 03:22:43;;;;;;;7.05;4.55;;;17.40;99.90;;;;;;4922331;29;20052;-64
2023/08/19 03:25:10;;;;;;;11.05;5.57;;;17.40;99.90;;;;;;4923053;29;20044;-65
2023/08/19 03:27:37;;;;;;;8.85;4.72;;;17.30;99.90;;;;;;4932408;29;20047;-64
2023/08/19 03:30:11;;;;;;;5.72;4.50;;;17.30;99.90;;;;;;4926116;29;20516;-64
2023/08/19 03:32:43;;;;;;;9.32;4.90;;;17.30;99.90;;;;;;4931325;29;20423;-65
2023/08/19 03:35:16;;;;;;;9.00;4.85;;;17.20;99.90;;;;;;4931056;29;20036;-64
2023/08/19 03:37:48;;;;;;;6.18;4.03;;;17.20;99.90;;;;;;4906143;29;20038;-64
2023/08/19 03:40:20;;;;;;;6.22;4.13;;;17.20;99.90;;;;;;4933338;29;20061;-64
2023/08/19 03:42:51;;;;;;;7.38;4.30;;;17.20;99.90;;;;;;4931632;29;20052;-64
2023/08/19 03:45:23;;;;;;;6.28;4.45;;;17.20;99.90;;;;;;4926943;29;20063;-65
2023/08/19 03:47:50;;;;;;;6.95;4.30;;;17.10;99.90;;;;;;4924877;29;20055;-64
2023/08/19 03:50:22;;;;;;;6.05;4.97;;;17.10;99.90;;;;;;4940896;28;20051;-64
2023/08/19 03:52:54;;;;;;;5.47;4.95;;;17.10;99.90;;;;;;4926519;29;20560;-64
2023/08/19 03:55:26;;;;;;;5.18;4.53;;;17.10;99.90;;;;;;4929616;29;20072;-64
2023/08/19 03:57:58;;;;;;;6.10;4.63;;;17.10;99.90;;;;;;4929946;29;20099;-64
2023/08/19 04:00:30;;;;;;;5.30;4.80;;;17.00;99.90;;;;;;4931049;29;20047;-64
2023/08/19 04:03:02;;;;;;;6.90;4.43;;;16.90;99.90;;;;;;4921260;29;20314;-64
2023/08/19 04:05:29;;;;;;;6.75;4.65;;;16.90;99.90;;;;;;4930996;29;20051;-64
2023/08/19 04:08:01;;;;;;;5.25;4.63;;;16.90;99.90;;;;;;4932898;29;20048;-65
2023/08/19 04:10:33;;;;;;;5.70;4.68;;;16.90;99.90;;;;;;4923736;29;20127;-64
2023/08/19 04:13:05;;;;;;;6.35;4.63;;;16.90;99.90;;;;;;4925916;29;20048;-64
2023/08/19 04:15:37;;;;;;;6.25;4.72;;;16.90;99.90;;;;;;4931620;29;20516;-64
2023/08/19 04:18:07;;;;;;;6.88;5.28;;;17.00;99.90;;;;;;4926614;29;20043;-64
2023/08/19 04:20:39;;;;;;;5.97;4.93;;;17.00;99.90;;;;;;4929258;29;20509;-64
2023/08/19 04:23:06;;;;;;;6.32;5.13;;;17.00;99.90;;;;;;4919160;29;20139;-64
2023/08/19 04:25:38;;;;;;;7.78;4.78;;;17.00;99.90;;;;;;4930616;29;20175;-64
2023/08/19 04:28:06;;;;;;;6.55;4.97;;;16.90;99.90;;;;;;4933458;29;20051;-64
2023/08/19 04:30:39;;;;;;;6.30;4.57;;;16.90;99.90;;;;;;4913843;29;20080;-64
2023/08/19 04:33:10;;;;;;;6.47;4.93;;;16.90;99.90;;;;;;4926067;29;20478;-64
2023/08/19 04:35:43;;;;;;;5.90;5.25;;;16.90;99.90;;;;;;4932771;29;20047;-64
2023/08/19 04:38:16;;;;;;;11.18;5.32;;;16.90;99.90;;;;;;4933862;29;20036;-64
2023/08/19 04:40:50;;;;;;;6.07;4.80;;;16.90;99.90;;;;;;4924130;29;20052;-64
2023/08/19 04:43:22;;;;;;;7.05;4.97;;;16.90;99.90;;;;;;4922031;29;20431;-64
2023/08/19 04:45:55;;;;;;;7.75;5.10;;;16.90;99.90;;;;;;4926234;29;20044;-64
2023/08/19 04:48:27;;;;;;;5.78;4.68;;;16.90;99.90;;;;;;4934336;28;20044;-64
2023/08/19 04:51:00;;;;;;;5.82;5.20;;;17.00;99.90;;;;;;4928868;29;20047;-64
2023/08/19 04:53:33;;;;;;;5.47;4.57;;;16.90;99.90;;;;;;4932074;29;20071;-64
2023/08/19 04:56:06;;;;;;;5.22;4.53;;;16.90;99.90;;;;;;4909931;29;20047;-64
2023/08/19 04:58:38;;;;;;;6.88;4.25;;;16.90;99.90;;;;;;4928702;29;20100;-64
2023/08/19 05:01:05;;;;;;;6.75;4.50;;;17.00;99.90;;;;;;4926031;29;20059;-64
2023/08/19 05:03:38;;;;;;;7.32;5.40;;;16.90;99.90;;;;;;4939382;28;20048;-64
2023/08/19 05:06:09;;;;;;;6.97;4.50;;;16.90;99.90;;;;;;4923085;29;20127;-64
2023/08/19 05:08:42;;;;;;;5.00;4.50;;;17.00;99.90;;;;;;4921018;29;20075;-64
2023/08/19 05:11:14;;;;;;;9.40;5.55;;;17.00;99.90;;;;;;4929984;29;20051;-64
2023/08/19 05:13:42;;;;;;;9.52;6.97;;;17.00;99.90;;;;;;4932884;29;20044;-65
2023/08/19 05:16:16;;;;;;;;;;;17.00;99.90;;;;;;4945323;28;20043;-64
2023/08/19 05:19:02;;;;;;;6.53;4.88;;;17.00;99.90;;;;;;4944884;28;20030;-65
2023/08/19 05:21:34;;;;;;;7.82;5.68;;;17.00;99.90;;;;;;4929922;29;20037;-64
2023/08/19 05:24:07;;;;;;;6.97;5.43;;;17.10;99.90;;;;;;4935558;29;20056;-64
2023/08/19 05:26:39;;;;;;;5.85;5.05;;;17.10;99.90;;;;;;4927618;29;20480;-64
2023/08/19 05:29:07;;;;;;;6.20;5.57;;;17.10;99.90;;;;;;4927958;29;20143;-64
2023/08/19 05:31:39;;;;;;;7.85;5.57;;;17.20;99.90;;;;;;4930679;29;20047;-64
2023/08/19 05:34:11;;;;;;;10.30;5.88;;;17.20;99.90;;;;;;4921994;29;20072;-64
2023/08/19 05:36:43;;;;;;;5.15;4.65;;;17.30;99.90;;;;;;4925295;29;20476;-65
2023/08/19 05:39:15;;;;;;;5.75;4.90;;;17.30;99.90;;;;;;4932822;29;20048;-65
2023/08/19 05:41:47;;;;;;;6.60;4.70;;;17.30;99.90;;;;;;4929983;29;20032;-65
2023/08/19 05:44:19;;;;;;;8.65;6.18;;;17.40;99.90;;;;;;4931963;29;20123;-65
2023/08/19 05:46:51;;;;;;;8.90;7.47;;;17.40;99.90;;;;;;4930711;29;20051;-64
2023/08/19 05:49:23;;;;;;;9.07;7.07;;;17.50;99.90;;;;;;4907322;29;20425;-64
2023/08/19 05:51:55;;;;;;;10.45;7.22;;;17.50;99.90;;;;;;4926247;29;20039;-64
2023/08/19 05:54:27;;;;;;;9.52;7.00;;;17.60;99.90;;;;;;4921911;29;20611;-64
2023/08/19 05:56:59;;;;;;;10.40;7.07;;;17.60;99.90;;;;;;4922450;29;20040;-64
2023/08/19 05:59:31;;;;;;;10.70;6.55;;;17.70;99.90;;;;;;4927956;28;20051;-64
2023/08/19 06:01:58;;;;;;;8.65;6.93;;;17.70;99.90;;;;;;4935091;29;20098;-64
2023/08/19 06:04:30;;;;;;;8.00;6.47;;;17.80;99.90;;;;;;4928188;29;20054;-64
2023/08/19 06:06:57;;;;;;;7.88;6.90;;;17.90;99.90;;;;;;4929266;29;20102;-64
2023/08/19 06:09:24;;;;;;;8.75;7.15;;;17.90;99.90;;;;;;4930511;29;20039;-64
2023/08/19 06:11:56;;;;;;;10.75;8.63;;;18.00;99.90;;;;;;4932131;28;20054;-63
2023/08/19 06:14:28;;;;;;;10.25;8.45;;;18.00;99.90;;;;;;4927916;29;20408;-64
2023/08/19 06:17:00;;;;;;;8.70;7.80;;;18.00;99.90;;;;;;4934238;29;20401;-64
2023/08/19 06:19:27;;;;;;;9.20;7.57;;;18.00;99.90;;;;;;4921897;29;20044;-72
2023/08/19 06:21:59;;;;;;;11.23;8.20;;;18.10;99.90;;;;;;4924963;29;20060;-64
2023/08/19 06:24:27;;;;;;;10.98;9.98;;;18.10;99.90;;;;;;4929544;29;20044;-64
2023/08/19 06:26:59;;;;;;;;;;;18.20;99.90;;;;;;4927593;29;20138;-64
2023/08/19 06:29:31;;;;;;;7.63;6.82;;;18.20;99.90;;;;;;4927365;29;19934;-65
2023/08/19 06:32:03;;;;;;;11.45;8.27;;;18.30;99.90;;;;;;4925206;29;20053;-64
2023/08/19 06:34:35;;;;;;;8.95;7.28;;;18.30;99.90;;;;;;4942421;28;20139;-65
2023/08/19 06:37:05;;;;;;;8.98;7.95;;;18.40;99.90;;;;;;4931668;29;20280;-64
2023/08/19 06:39:36;;;;;;;9.15;7.40;;;18.40;99.90;;;;;;4934162;29;20504;-64
2023/08/19 06:42:10;;;;;;;10.18;7.82;;;18.50;99.90;;;;;;4930875;29;20040;-64
2023/08/19 06:44:42;;;;;;;;;;;18.60;99.90;;;;;;4926923;29;20516;-64
2023/08/19 06:47:20;;;;;;;10.55;8.48;;;18.60;99.90;;;;;;4925219;29;19938;-65
2023/08/19 06:49:52;;;;;;;8.80;7.57;;;18.70;99.90;;;;;;4941893;28;20112;-65
2023/08/19 06:52:24;;;;;;;7.38;6.60;;;18.80;99.90;;;;;;4929844;29;20047;-64
2023/08/19 06:54:57;;;;;;;13.00;8.73;;;18.80;99.90;;;;;;4932895;29;20040;-64
2023/08/19 06:57:34;;;;;;;15.95;9.65;;;18.90;99.90;;;;;;4930911;29;20070;-64
2023/08/19 07:00:09;;;;;;;8.70;7.80;;;19.00;99.90;;;;;;4926245;29;20051;-64
2023/08/19 07:02:41;;;;;;;10.20;7.78;;;19.10;99.90;;;;;;4929721;29;20044;-64
2023/08/19 07:05:15;;;;;;;9.80;8.27;;;19.20;99.90;;;;;;4925058;29;20048;-64
2023/08/19 07:07:51;;;;;;;9.90;7.63;;;19.20;99.90;;;;;;4921948;29;20052;-64
2023/08/19 07:10:23;;;;;;;9.77;7.57;;;19.30;99.90;;;;;;4930038;29;20054;-65
2023/08/19 07:12:55;;;;;;;8.35;7.55;;;19.40;99.90;;;;;;4930056;29;20424;-65
2023/08/19 07:15:27;;;;;;;8.27;6.97;;;19.50;99.90;;;;;;4927571;29;20051;-65
2023/08/19 07:18:00;;;;;;;8.75;7.43;;;19.60;99.90;;;;;;4928976;29;20460;-65
2023/08/19 07:20:33;;;;;;;8.68;7.30;;;19.70;99.90;;;;;;4934459;29;20047;-65
2023/08/19 07:23:02;;;;;;;9.32;8.20;;;19.80;99.90;;;;;;4929972;29;20115;-65
2023/08/19 07:25:34;;;;;;;11.73;7.03;;;19.90;99.90;;;;;;4926159;29;20043;-65
2023/08/19 07:28:03;;;;;;;8.82;7.30;;;19.90;99.90;;;;;;4933872;29;20519;-65
2023/08/19 07:30:35;;;;;;;9.32;8.32;;;20.00;99.90;;;;;;4934390;29;20054;-65
2023/08/19 07:33:10;;;;;;;8.68;7.38;;;20.20;99.90;;;;;;4930896;29;20043;-65
2023/08/19 07:35:43;;;;;;;11.20;8.25;;;20.30;99.90;;;;;;4933539;29;20036;-65
2023/08/19 07:38:10;;;;;;;8.93;6.80;;;20.40;99.90;;;;;;4929281;29;20044;-65
2023/08/19 07:40:42;;;;;;;9.07;7.30;;;20.50;99.90;;;;;;4931073;29;20054;-65
2023/08/19 07:43:14;;;;;;;11.10;7.10;;;20.60;99.90;;;;;;4932387;29;20059;-65
2023/08/19 07:45:46;;;;;;;9.13;7.80;;;20.70;99.90;;;;;;4929999;29;20047;-65
2023/08/19 07:48:18;;;;;;;10.65;8.13;;;20.80;99.90;;;;;;4935351;29;20048;-65
2023/08/19 07:50:50;;;;;;;9.57;8.00;;;20.90;99.90;;;;;;4930098;29;20064;-65
2023/08/19 07:53:22;;;;;;;8.32;6.90;;;21.10;99.90;;;;;;4929475;29;20104;-65
2023/08/19 07:55:54;;;;;;;7.75;7.03;;;21.20;99.90;;;;;;4926323;29;20054;-65
2023/08/19 07:58:21;;;;;;;8.93;7.15;;;21.30;99.90;;;;;;4926544;29;20055;-65
2023/08/19 08:00:53;;;;;;;11.13;7.75;;;21.40;99.90;;;;;;4925103;29;20139;-65
2023/08/19 08:03:25;;;;;;;9.98;7.68;;;21.50;99.90;;;;;;4925653;29;20056;-65
2023/08/19 08:05:56;;;;;;;11.38;7.47;;;21.70;99.90;;;;;;4927957;29;20067;-65
2023/08/19 08:08:28;;;;;;;12.57;7.80;;;21.80;99.90;;;;;;4928632;29;20107;-65
2023/08/19 08:11:00;;;;;;;8.80;7.68;;;21.90;99.90;;;;;;4929392;29;20054;-65
2023/08/19 08:13:32;;;;;;;9.75;6.93;;;22.00;99.90;;;;;;4926586;29;20501;-64
2023/08/19 08:15:59;;;;;;;8.43;7.55;;;22.20;99.90;;;;;;4923817;29;20059;-66
2023/08/19 08:18:31;;;;;;;8.27;7.47;;;22.30;99.90;;;;;;4926795;29;20051;-65
2023/08/19 08:21:04;;;;;;;8.75;7.57;;;22.40;99.90;;;;;;4936123;28;20718;-65
2023/08/19 08:23:31;;;;;;;8.05;7.28;;;22.50;99.90;;;;;;4928912;29;20048;-65
2023/08/19 08:25:58;;;;;;;11.15;8.00;;;22.60;99.90;;;;;;4927364;29;20766;-65
2023/08/19 08:28:29;;;;;;;9.70;7.15;;;22.70;99.90;;;;;;4919066;29;20058;-64
2023/08/19 08:30:56;;;;;;;8.30;6.00;;;22.90;99.90;;;;;;4921985;29;20043;-64
2023/08/19 08:33:28;;;;;;;11.25;7.22;;;23.00;99.90;;;;;;4925013;29;20036;-64
2023/08/19 08:36:00;;;;;;;8.50;6.82;;;23.10;99.90;;;;;;4927894;29;20054;-62
2023/08/19 08:38:32;;;;;;;8.68;6.95;;;23.20;99.90;;;;;;4930265;29;20051;-63
2023/08/19 08:41:05;;;;;;;9.65;7.00;;;23.30;99.90;;;;;;4927134;29;20055;-63
2023/08/19 08:43:39;;;;;;;9.10;7.38;;;23.40;99.90;;;;;;4928454;29;20050;-64
2023/08/19 08:46:13;;;;;;;8.45;7.55;;;23.50;99.90;;;;;;4928394;29;20444;-63
2023/08/19 08:48:45;;;;;;;8.45;6.13;;;23.60;99.90;;;;;;4929010;29;20049;-64
2023/08/19 08:51:19;;;;;;;8.00;6.50;;;23.70;99.90;;;;;;4924422;29;20040;-64
2023/08/19 08:53:52;;;;;;;11.13;6.28;;;23.80;99.90;;;;;;4924372;29;20140;-64
2023/08/19 08:56:19;;;;;;;7.78;6.18;;;24.00;99.90;;;;;;4933187;29;20044;-63
2023/08/19 08:58:51;;;;;;;12.30;6.47;;;24.10;99.90;;;;;;4931505;29;20039;-64
2023/08/19 09:01:26;;;;;;;6.95;6.15;;;24.20;99.90;;;;;;4936235;29;20044;-64
2023/08/19 09:04:04;;;;;;;6.28;5.68;;;24.30;99.90;;;;;;4933131;29;20056;-64
2023/08/19 09:06:38;;;;;;;8.38;6.15;;;24.40;99.90;;;;;;4929152;29;20044;-63
2023/08/19 09:09:12;;;;;;;8.68;5.72;;;24.50;99.90;;;;;;4928359;29;20052;-64
2023/08/19 09:11:42;;;;;;;7.10;6.40;;;24.70;99.90;;;;;;4925763;29;20119;-63
2023/08/19 09:14:45;;;;;;;7.35;6.13;;;24.70;99.90;;;;;;4934808;29;20051;-62
2023/08/19 09:17:14;;;;;;;7.63;5.93;;;24.90;99.90;;;;;;4930779;29;20048;-64
2023/08/19 09:19:46;;;;;;;6.53;5.70;;;25.00;99.90;;;;;;4930416;29;20091;-64
2023/08/19 09:22:19;;;;;;;8.70;5.87;;;25.20;99.90;;;;;;4959691;23;20065;-68
2023/08/19 09:24:53;;;;;;;8.82;6.43;;;25.30;99.90;;;;;;4972998;28;20504;-67
2023/08/19 09:27:29;;;;;;;9.15;6.63;;;25.40;99.90;;;;;;4964410;28;20047;-67
2023/08/19 09:30:01;;;;;;;7.55;6.65;;;25.50;99.90;;;;;;4967374;28;20046;-67
2023/08/19 09:32:29;;;;;;;7.30;6.22;;;25.60;99.90;;;;;;4963091;28;20051;-67
2023/08/19 09:35:03;;;;;;;8.57;5.53;;;25.70;99.90;;;;;;4949487;28;20077;-67
2023/08/19 09:37:36;;;;;;;7.93;5.70;;;25.80;99.90;;;;;;4965481;28;20043;-67
2023/08/19 09:40:08;;;;;;;7.13;5.88;;;25.90;99.90;;;;;;4952926;28;20043;-67
2023/08/19 09:42:45;;;;;;;9.15;5.65;;;26.00;99.90;;;;;;4963000;28;20053;-67
2023/08/19 09:45:19;;;;;;;9.52;5.30;;;26.10;99.90;;;;;;4948405;28;20066;-67
2023/08/19 09:47:52;;;;;;;8.32;5.43;;;26.20;99.90;;;;;;4951986;28;20050;-67
2023/08/19 09:50:24;;;;;;;10.15;6.53;;;26.30;99.90;;;;;;4968329;28;20056;-67
2023/08/19 09:52:58;;;;;;;8.18;5.88;;;26.40;99.90;;;;;;4952351;28;20109;-67
2023/08/19 09:55:32;;;;;;;10.90;5.90;;;26.60;99.90;;;;;;4963895;28;20133;-67
2023/08/19 09:58:04;;;;;;;8.98;5.50;;;26.60;99.90;;;;;;4949371;28;20102;-67
2023/08/19 10:00:36;;;;;;;11.75;6.13;;;26.80;99.90;;;;;;4953413;28;20051;-66
2023/08/19 10:03:08;;;;;;;11.23;5.13;;;26.90;99.90;;;;;;4955167;28;20538;-67
2023/08/19 10:05:42;;;;;;;6.93;5.40;;;27.00;99.90;;;;;;4955569;28;20063;-67
2023/08/19 10:08:19;;;;;;;6.53;5.80;;;27.10;99.90;;;;;;4965417;28;21068;-67
2023/08/19 10:10:51;;;;;;;12.35;6.03;;;27.10;99.90;;;;;;4952713;28;20035;-67
2023/08/19 10:13:25;;;;;;;8.50;5.47;;;27.20;99.90;;;;;;4953172;28;20042;-67
2023/08/19 10:15:58;;;;;;;8.93;5.70;;;27.30;99.90;;;;;;4950990;28;20051;-67
2023/08/19 10:18:35;;;;;;;12.57;6.20;;;27.40;99.90;;;;;;4952241;28;20039;-67
2023/08/19 10:21:11;;;;;;;7.15;5.13;;;27.40;99.90;;;;;;4953458;28;20047;-67
2023/08/19 10:23:45;;;;;;;6.82;4.93;;;27.50;99.90;;;;;;4953179;28;20053;-67
2023/08/19 10:26:15;;;;;;;7.20;5.03;;;27.70;99.90;;;;;;4953982;28;20053;-67
2023/08/19 10:28:42;;;;;;;9.77;5.03;;;27.80;99.90;;;;;;4952388;28;20567;-67
2023/08/19 10:31:10;;;;;;;8.25;5.47;;;27.90;99.90;;;;;;4952277;28;20047;-67
2023/08/19 10:33:44;;;;;;;12.18;5.18;;;28.00;99.90;;;;;;4954401;28;20043;-67
2023/08/19 10:36:18;;;;;;;7.35;5.57;;;28.00;99.90;;;;;;4953189;28;20408;-67
2023/08/19 10:39:03;;;;;;;9.52;5.40;;;28.10;99.90;;;;;;4952931;28;20507;-67
2023/08/19 10:41:36;;;;;;;7.10;5.28;;;28.20;99.90;;;;;;4952726;28;20117;-67
2023/08/19 10:44:07;;;;;;;6.18;4.88;;;28.30;99.90;;;;;;4948047;28;20071;-68
2023/08/19 10:46:40;;;;;;;8.65;5.78;;;28.30;99.90;;;;;;4950187;28;20047;-68
2023/08/19 10:49:15;;;;;;;8.07;4.80;;;28.50;99.90;;;;;;4948589;28;20043;-68
2023/08/19 10:51:57;;;;;;;10.45;4.90;;;28.50;99.90;;;;;;4949669;28;20041;-67
2023/08/19 10:54:42;;;;;;;6.60;5.13;;;28.70;99.90;;;;;;4950505;28;20043;-67
2023/08/19 10:57:14;;;;;;;6.07;5.05;;;28.70;99.90;;;;;;4949697;28;20041;-67
2023/08/19 10:59:46;;;;;;;6.85;4.72;;;28.80;99.90;;;;;;4950886;28;20566;-67
2023/08/19 11:02:18;;;;;;;8.88;4.45;;;28.80;99.90;;;;;;4947580;28;20098;-68
2023/08/19 11:04:49;;;;;;;8.73;4.63;;;29.00;99.90;;;;;;4951358;28;20039;-67
2023/08/19 11:07:21;;;;;;;10.43;5.47;;;29.10;99.90;;;;;;4950108;28;20063;-67
2023/08/19 11:09:56;;;;;;;7.97;5.18;;;29.20;99.90;;;;;;4952931;28;20484;-67
2023/08/19 11:12:29;;;;;;;7.90;4.65;;;29.30;99.90;;;;;;4952801;28;20137;-67
2023/08/19 11:14:56;;;;;;;6.63;4.80;;;29.30;99.90;;;;;;4951979;28;20047;-67
2023/08/19 11:17:30;;;;;;;6.45;4.80;;;29.30;99.90;;;;;;4952302;28;20046;-67
2023/08/19 11:20:10;;;;;;;7.93;5.38;;;29.30;99.90;;;;;;4951873;28;20050;-67
2023/08/19 11:22:45;;;;;;;8.43;5.97;;;29.40;99.90;;;;;;4968969;28;20054;-67
2023/08/19 11:25:17;;;;;;;9.10;5.20;;;29.40;99.90;;;;;;4952593;28;20055;-68
2023/08/19 11:27:50;;;;;;;7.13;4.30;;;29.50;99.90;;;;;;4947168;28;20038;-67
2023/08/19 11:30:24;;;;;;;8.73;4.43;;;29.60;99.90;;;;;;4952876;28;20063;-67
2023/08/19 11:32:50;;;;;;;8.88;4.63;;;29.70;99.90;;;;;;4952646;28;20042;-68
2023/08/19 11:35:17;;;;;;;7.80;4.63;;;29.70;99.90;;;;;;4952811;28;20039;-67
2023/08/19 11:37:49;;;;;;;7.30;4.60;;;29.80;99.90;;;;;;4958916;28;20464;-67
2023/08/19 11:40:31;;;;;;;8.23;4.63;;;29.80;99.90;;;;;;4947229;28;20046;-67
2023/08/19 11:43:08;;;;;;;8.13;4.50;;;30.00;99.90;;;;;;4946167;28;20047;-67
2023/08/19 11:45:40;;;;;;;7.47;4.30;;;30.10;99.90;;;;;;4949793;28;20071;-67
2023/08/19 11:48:16;;;;;;;6.68;4.13;;;30.20;99.90;;;;;;4950837;28;20054;-67
2023/08/19 11:50:50;;;;;;;9.23;4.28;;;30.30;99.90;;;;;;4952518;28;20062;-67
2023/08/19 11:53:28;;;;;;;10.00;4.53;;;30.40;99.90;;;;;;4959815;28;20047;-67
2023/08/19 11:56:00;;;;;;;8.07;3.90;;;30.50;99.90;;;;;;4952719;28;20117;-67
2023/08/19 11:58:52;;;;;;;11.52;4.57;;;30.60;99.90;;;;;;4948474;28;20043;-67
2023/08/19 12:01:24;;;;;;;6.68;4.13;;;30.70;99.90;;;;;;4951955;28;20058;-68
2023/08/19 12:03:57;;;;;;;9.70;3.80;;;30.80;99.90;;;;;;4950178;28;20043;-67
2023/08/19 12:06:24;;;;;;;7.07;4.00;;;30.90;99.90;;;;;;4948669;28;20122;-68
2023/08/19 12:08:56;;;;;;;7.40;3.92;;;31.00;99.90;;;;;;4953261;28;20047;-67
2023/08/19 12:11:28;;;;;;;6.95;3.95;;;31.00;99.90;;;;;;4948533;28;20043;-68
2023/08/19 12:14:00;;;;;;;6.10;3.67;;;31.10;99.90;;;;;;4949978;28;20102;-68
2023/08/19 12:16:32;;;;;;;8.70;4.10;;;31.20;99.90;;;;;;4952552;28;20046;-67
2023/08/19 12:18:59;;;;;;;6.60;4.13;;;31.20;99.90;;;;;;4947547;28;20131;-67
2023/08/19 12:21:30;;;;;;;7.53;3.60;;;31.20;99.90;;;;;;4941871;28;20067;-69
2023/08/19 12:24:03;;;;;;;6.47;4.28;;;31.40;99.90;;;;;;4949428;28;20791;-68
2023/08/19 12:26:30;;;;;;;7.45;3.60;;;31.40;99.90;;;;;;4952637;28;20702;-67
2023/08/19 12:29:02;;;;;;;10.50;3.10;;;31.40;99.90;;;;;;4955787;28;20055;-67
2023/08/19 12:31:29;;;;;;;8.65;3.45;;;31.40;98.30;;;;;;4955631;28;20035;-67
2023/08/19 12:34:00;;;;;;;5.47;2.90;;;31.40;97.50;;;;;;4955970;28;20035;-67
2023/08/19 12:36:27;;;;;;;7.80;2.92;;;31.40;94.40;;;;;;4955180;28;20121;-68
2023/08/19 12:38:59;;;;;;;7.25;3.15;;;31.60;94.90;;;;;;4945007;28;20102;-68
2023/08/19 12:41:31;;;;;;;7.77;3.23;;;31.60;95.60;;;;;;4954604;28;20138;-67
2023/08/19 12:44:03;;;;;;;8.38;3.08;;;31.70;95.60;;;;;;4952849;28;20078;-67
2023/08/19 12:46:32;;;;;;;7.93;3.58;;;31.80;95.50;;;;;;4955134;28;20043;-67
2023/08/19 12:49:04;;;;;;;8.02;3.30;;;31.90;93.80;;;;;;4954205;28;20719;-68
2023/08/19 12:51:36;;;;;;;8.83;4.07;;;31.90;91.30;;;;;;4953703;28;20046;-67
2023/08/19 12:54:09;;;;;;;6.78;3.60;;;32.00;93.10;;;;;;4955694;28;20050;-68
2023/08/19 12:56:40;;;;;;;11.75;3.55;;;32.00;93.00;;;;;;4953187;28;20518;-68
2023/08/19 12:59:12;;;;;;;11.37;3.50;;;32.10;93.40;;;;;;4952770;28;20061;-67
2023/08/19 13:01:44;;;;;;;8.10;3.20;;;32.10;90.80;;;;;;4953376;28;20055;-68
2023/08/19 13:04:16;;;;;;;7.30;2.90;;;32.10;87.10;;;;;;4964087;28;20806;-67
2023/08/19 13:06:48;;;;;;;9.97;3.43;;;32.10;89.10;;;;;;4970334;28;20046;-68
2023/08/19 13:09:20;;;;;;;6.40;3.60;;;32.20;87.50;;;;;;4971651;28;20046;-68
2023/08/19 13:11:52;;;;;;;;;;;32.20;86.70;;;;;;4970721;28;20679;-68